sensor_id;sensor_type;location;lat;lon;timestamp;P1;durP1;ratioP1;P2;durP2;ratioP2
72639;SDS011;60683;51.730;8.762;2022-07-29T00:02:04;4.80;;;1.40;;
72639;SDS011;60683;51.730;8.762;2022-07-29T00:04:33;3.00;;;0.90;;
72639;SDS011;60683;51.730;8.762;2022-07-29T00:07:01;2.67;;;1.02;;
72639;SDS011;60683;51.730;8.762;2022-07-29T00:09:29;2.47;;;1.40;;
72639;SDS011;60683;51.730;8.762;2022-07-29T00:11:56;3.65;;;1.20;;
72639;SDS011;60683;51.730;8.762;2022-07-29T00:14:27;2.90;;;1.10;;
72639;SDS011;60683;51.730;8.762;2022-07-29T00:16:55;3.03;;;1.20;;
72639;SDS011;60683;51.730;8.762;2022-07-29T00:19:24;4.97;;;1.50;;
72639;SDS011;60683;51.730;8.762;2022-07-29T00:21:58;2.67;;;1.10;;
72639;SDS011;60683;51.730;8.762;2022-07-29T00:24:25;4.45;;;1.25;;
72639;SDS011;60683;51.730;8.762;2022-07-29T00:26:55;5.35;;;1.70;;
72639;SDS011;60683;51.730;8.762;2022-07-29T00:29:23;3.63;;;1.67;;
72639;SDS011;60683;51.730;8.762;2022-07-29T00:31:52;2.75;;;1.50;;
72639;SDS011;60683;51.730;8.762;2022-07-29T00:34:19;1.98;;;1.08;;
72639;SDS011;60683;51.730;8.762;2022-07-29T00:37:04;4.85;;;1.35;;
72639;SDS011;60683;51.730;8.762;2022-07-29T00:39:32;2.75;;;1.20;;
72639;SDS011;60683;51.730;8.762;2022-07-29T00:42:01;4.05;;;1.30;;
72639;SDS011;60683;51.730;8.762;2022-07-29T00:44:29;3.65;;;1.20;;
72639;SDS011;60683;51.730;8.762;2022-07-29T00:49:28;3.10;;;1.08;;
72639;SDS011;60683;51.730;8.762;2022-07-29T00:51:55;3.60;;;1.30;;
72639;SDS011;60683;51.730;8.762;2022-07-29T00:54:24;4.53;;;1.20;;
72639;SDS011;60683;51.730;8.762;2022-07-29T00:56:52;1.67;;;0.70;;
72639;SDS011;60683;51.730;8.762;2022-07-29T00:59:20;3.13;;;0.98;;
72639;SDS011;60683;51.730;8.762;2022-07-29T01:01:47;2.75;;;1.08;;
72639;SDS011;60683;51.730;8.762;2022-07-29T01:04:16;3.40;;;1.10;;
72639;SDS011;60683;51.730;8.762;2022-07-29T01:06:44;4.40;;;1.00;;
72639;SDS011;60683;51.730;8.762;2022-07-29T01:09:11;3.33;;;1.17;;
72639;SDS011;60683;51.730;8.762;2022-07-29T01:11:41;4.13;;;1.20;;
72639;SDS011;60683;51.730;8.762;2022-07-29T01:14:09;2.58;;;1.10;;
72639;SDS011;60683;51.730;8.762;2022-07-29T01:16:37;2.65;;;0.95;;
72639;SDS011;60683;51.730;8.762;2022-07-29T01:19:12;4.28;;;1.25;;
72639;SDS011;60683;51.730;8.762;2022-07-29T01:21:53;5.38;;;1.00;;
72639;SDS011;60683;51.730;8.762;2022-07-29T01:24:39;3.05;;;1.15;;
72639;SDS011;60683;51.730;8.762;2022-07-29T01:27:24;2.00;;;1.20;;
72639;SDS011;60683;51.730;8.762;2022-07-29T01:30:01;3.30;;;1.00;;
72639;SDS011;60683;51.730;8.762;2022-07-29T01:32:33;5.97;;;1.20;;
72639;SDS011;60683;51.730;8.762;2022-07-29T01:35:06;2.60;;;1.60;;
72639;SDS011;60683;51.730;8.762;2022-07-29T01:37:39;5.60;;;1.77;;
72639;SDS011;60683;51.730;8.762;2022-07-29T01:40:16;1.85;;;0.80;;
72639;SDS011;60683;51.730;8.762;2022-07-29T01:42:48;4.55;;;1.35;;
72639;SDS011;60683;51.730;8.762;2022-07-29T01:45:19;3.25;;;1.20;;
72639;SDS011;60683;51.730;8.762;2022-07-29T01:47:54;3.88;;;1.40;;
72639;SDS011;60683;51.730;8.762;2022-07-29T01:50:26;4.22;;;1.65;;
72639;SDS011;60683;51.730;8.762;2022-07-29T01:52:59;2.25;;;1.23;;
72639;SDS011;60683;51.730;8.762;2022-07-29T01:55:32;3.40;;;1.42;;
72639;SDS011;60683;51.730;8.762;2022-07-29T01:58:03;2.60;;;0.90;;
72639;SDS011;60683;51.730;8.762;2022-07-29T02:00:33;4.72;;;1.10;;
72639;SDS011;60683;51.730;8.762;2022-07-29T02:03:02;2.17;;;1.20;;
72639;SDS011;60683;51.730;8.762;2022-07-29T02:05:32;4.95;;;1.73;;
72639;SDS011;60683;51.730;8.762;2022-07-29T02:08:00;2.83;;;1.10;;
72639;SDS011;60683;51.730;8.762;2022-07-29T02:10:30;4.03;;;1.05;;
72639;SDS011;60683;51.730;8.762;2022-07-29T02:12:58;4.78;;;1.08;;
72639;SDS011;60683;51.730;8.762;2022-07-29T02:15:27;3.92;;;1.25;;
72639;SDS011;60683;51.730;8.762;2022-07-29T02:17:58;3.15;;;1.20;;
72639;SDS011;60683;51.730;8.762;2022-07-29T02:20:28;3.15;;;1.02;;
72639;SDS011;60683;51.730;8.762;2022-07-29T02:22:55;3.95;;;1.10;;
72639;SDS011;60683;51.730;8.762;2022-07-29T02:25:24;4.45;;;1.50;;
72639;SDS011;60683;51.730;8.762;2022-07-29T02:27:51;5.22;;;1.33;;
72639;SDS011;60683;51.730;8.762;2022-07-29T02:30:19;3.63;;;1.52;;
72639;SDS011;60683;51.730;8.762;2022-07-29T02:32:48;5.90;;;1.45;;
72639;SDS011;60683;51.730;8.762;2022-07-29T02:35:18;3.53;;;1.02;;
72639;SDS011;60683;51.730;8.762;2022-07-29T02:37:46;2.47;;;1.00;;
72639;SDS011;60683;51.730;8.762;2022-07-29T02:40:35;2.53;;;0.90;;
72639;SDS011;60683;51.730;8.762;2022-07-29T02:43:05;2.95;;;1.30;;
72639;SDS011;60683;51.730;8.762;2022-07-29T02:45:33;3.70;;;1.33;;
72639;SDS011;60683;51.730;8.762;2022-07-29T02:48:03;4.65;;;1.10;;
72639;SDS011;60683;51.730;8.762;2022-07-29T02:50:36;3.00;;;1.55;;
72639;SDS011;60683;51.730;8.762;2022-07-29T02:53:07;3.83;;;1.17;;
72639;SDS011;60683;51.730;8.762;2022-07-29T02:55:40;2.25;;;0.95;;
72639;SDS011;60683;51.730;8.762;2022-07-29T02:58:13;4.30;;;1.42;;
72639;SDS011;60683;51.730;8.762;2022-07-29T03:00:43;2.70;;;1.38;;
72639;SDS011;60683;51.730;8.762;2022-07-29T03:03:17;5.07;;;2.30;;
72639;SDS011;60683;51.730;8.762;2022-07-29T03:05:53;2.97;;;1.30;;
72639;SDS011;60683;51.730;8.762;2022-07-29T03:08:22;2.53;;;1.10;;
72639;SDS011;60683;51.730;8.762;2022-07-29T03:11:02;2.78;;;1.48;;
72639;SDS011;60683;51.730;8.762;2022-07-29T03:13:36;2.90;;;1.17;;
72639;SDS011;60683;51.730;8.762;2022-07-29T03:16:04;3.08;;;1.20;;
72639;SDS011;60683;51.730;8.762;2022-07-29T03:18:32;5.03;;;1.10;;
72639;SDS011;60683;51.730;8.762;2022-07-29T03:21:15;4.05;;;1.52;;
72639;SDS011;60683;51.730;8.762;2022-07-29T03:23:48;3.72;;;1.30;;
72639;SDS011;60683;51.730;8.762;2022-07-29T03:26:16;1.13;;;0.70;;
72639;SDS011;60683;51.730;8.762;2022-07-29T03:28:43;3.72;;;1.10;;
72639;SDS011;60683;51.730;8.762;2022-07-29T03:31:10;4.32;;;1.20;;
72639;SDS011;60683;51.730;8.762;2022-07-29T03:33:38;2.53;;;1.30;;
72639;SDS011;60683;51.730;8.762;2022-07-29T03:36:14;2.67;;;1.00;;
72639;SDS011;60683;51.730;8.762;2022-07-29T03:38:48;2.65;;;1.02;;
72639;SDS011;60683;51.730;8.762;2022-07-29T03:41:19;3.05;;;1.33;;
72639;SDS011;60683;51.730;8.762;2022-07-29T03:43:49;3.53;;;1.38;;
72639;SDS011;60683;51.730;8.762;2022-07-29T03:46:17;2.60;;;1.13;;
72639;SDS011;60683;51.730;8.762;2022-07-29T03:48:48;3.28;;;1.30;;
72639;SDS011;60683;51.730;8.762;2022-07-29T03:51:19;4.15;;;1.48;;
72639;SDS011;60683;51.730;8.762;2022-07-29T03:53:47;3.47;;;1.30;;
72639;SDS011;60683;51.730;8.762;2022-07-29T03:56:15;3.25;;;1.45;;
72639;SDS011;60683;51.730;8.762;2022-07-29T03:58:45;2.70;;;0.80;;
72639;SDS011;60683;51.730;8.762;2022-07-29T04:01:13;4.63;;;1.60;;
72639;SDS011;60683;51.730;8.762;2022-07-29T04:03:43;3.25;;;1.40;;
72639;SDS011;60683;51.730;8.762;2022-07-29T04:06:11;4.65;;;1.48;;
72639;SDS011;60683;51.730;8.762;2022-07-29T04:11:09;3.50;;;1.40;;
72639;SDS011;60683;51.730;8.762;2022-07-29T04:13:38;2.92;;;2.08;;
72639;SDS011;60683;51.730;8.762;2022-07-29T04:16:06;1.88;;;1.00;;
72639;SDS011;60683;51.730;8.762;2022-07-29T04:18:33;4.38;;;1.55;;
72639;SDS011;60683;51.730;8.762;2022-07-29T04:21:00;5.38;;;1.23;;
72639;SDS011;60683;51.730;8.762;2022-07-29T04:23:29;3.05;;;1.30;;
72639;SDS011;60683;51.730;8.762;2022-07-29T04:26:02;5.28;;;1.65;;
72639;SDS011;60683;51.730;8.762;2022-07-29T04:28:30;3.85;;;1.20;;
72639;SDS011;60683;51.730;8.762;2022-07-29T04:30:57;2.28;;;1.05;;
72639;SDS011;60683;51.730;8.762;2022-07-29T04:33:25;4.32;;;1.55;;
72639;SDS011;60683;51.730;8.762;2022-07-29T04:35:53;3.60;;;1.20;;
72639;SDS011;60683;51.730;8.762;2022-07-29T04:38:20;2.35;;;0.93;;
72639;SDS011;60683;51.730;8.762;2022-07-29T04:40:48;2.67;;;1.17;;
72639;SDS011;60683;51.730;8.762;2022-07-29T04:43:18;2.72;;;1.15;;
72639;SDS011;60683;51.730;8.762;2022-07-29T04:45:46;3.70;;;1.10;;
72639;SDS011;60683;51.730;8.762;2022-07-29T04:48:13;4.28;;;1.20;;
72639;SDS011;60683;51.730;8.762;2022-07-29T04:50:40;3.40;;;1.27;;
72639;SDS011;60683;51.730;8.762;2022-07-29T04:53:08;3.55;;;1.42;;
72639;SDS011;60683;51.730;8.762;2022-07-29T04:55:35;4.30;;;1.30;;
72639;SDS011;60683;51.730;8.762;2022-07-29T04:58:03;3.13;;;1.33;;
72639;SDS011;60683;51.730;8.762;2022-07-29T05:00:31;3.92;;;1.40;;
72639;SDS011;60683;51.730;8.762;2022-07-29T05:02:59;2.72;;;1.10;;
72639;SDS011;60683;51.730;8.762;2022-07-29T05:05:26;3.17;;;1.02;;
72639;SDS011;60683;51.730;8.762;2022-07-29T05:07:54;2.28;;;0.90;;
72639;SDS011;60683;51.730;8.762;2022-07-29T05:10:22;4.18;;;1.40;;
72639;SDS011;60683;51.730;8.762;2022-07-29T05:12:49;2.92;;;1.27;;
72639;SDS011;60683;51.730;8.762;2022-07-29T05:15:17;3.42;;;1.30;;
72639;SDS011;60683;51.730;8.762;2022-07-29T05:17:46;4.93;;;1.70;;
72639;SDS011;60683;51.730;8.762;2022-07-29T05:20:13;2.67;;;1.30;;
72639;SDS011;60683;51.730;8.762;2022-07-29T05:22:40;5.00;;;1.25;;
72639;SDS011;60683;51.730;8.762;2022-07-29T05:25:08;4.32;;;1.70;;
72639;SDS011;60683;51.730;8.762;2022-07-29T05:27:36;3.72;;;1.15;;
72639;SDS011;60683;51.730;8.762;2022-07-29T05:30:03;3.65;;;1.30;;
72639;SDS011;60683;51.730;8.762;2022-07-29T05:32:31;2.58;;;1.30;;
72639;SDS011;60683;51.730;8.762;2022-07-29T05:35:00;2.92;;;0.75;;
72639;SDS011;60683;51.730;8.762;2022-07-29T05:37:28;7.07;;;1.42;;
72639;SDS011;60683;51.730;8.762;2022-07-29T05:39:55;4.35;;;1.23;;
72639;SDS011;60683;51.730;8.762;2022-07-29T05:42:23;4.63;;;1.40;;
72639;SDS011;60683;51.730;8.762;2022-07-29T05:44:50;4.47;;;1.40;;
72639;SDS011;60683;51.730;8.762;2022-07-29T05:47:17;5.38;;;1.25;;
72639;SDS011;60683;51.730;8.762;2022-07-29T05:49:45;6.38;;;1.23;;
72639;SDS011;60683;51.730;8.762;2022-07-29T05:52:14;2.72;;;1.02;;
72639;SDS011;60683;51.730;8.762;2022-07-29T05:54:41;4.80;;;1.10;;
72639;SDS011;60683;51.730;8.762;2022-07-29T05:57:14;2.75;;;1.40;;
72639;SDS011;60683;51.730;8.762;2022-07-29T05:59:42;2.00;;;0.90;;
72639;SDS011;60683;51.730;8.762;2022-07-29T06:02:09;4.85;;;1.80;;
72639;SDS011;60683;51.730;8.762;2022-07-29T06:04:37;3.38;;;1.50;;
72639;SDS011;60683;51.730;8.762;2022-07-29T06:07:04;5.82;;;1.23;;
72639;SDS011;60683;51.730;8.762;2022-07-29T06:09:33;4.10;;;1.85;;
72639;SDS011;60683;51.730;8.762;2022-07-29T06:12:01;4.65;;;1.20;;
72639;SDS011;60683;51.730;8.762;2022-07-29T06:14:29;2.47;;;1.30;;
72639;SDS011;60683;51.730;8.762;2022-07-29T06:16:56;4.03;;;1.30;;
72639;SDS011;60683;51.730;8.762;2022-07-29T06:19:24;5.95;;;1.30;;
72639;SDS011;60683;51.730;8.762;2022-07-29T06:21:51;4.05;;;1.50;;
72639;SDS011;60683;51.730;8.762;2022-07-29T06:24:21;5.93;;;1.20;;
72639;SDS011;60683;51.730;8.762;2022-07-29T06:26:52;3.65;;;1.40;;
72639;SDS011;60683;51.730;8.762;2022-07-29T06:29:20;4.10;;;1.48;;
72639;SDS011;60683;51.730;8.762;2022-07-29T06:31:47;4.30;;;1.50;;
72639;SDS011;60683;51.730;8.762;2022-07-29T06:34:14;4.85;;;1.08;;
72639;SDS011;60683;51.730;8.762;2022-07-29T06:36:42;4.05;;;1.40;;
72639;SDS011;60683;51.730;8.762;2022-07-29T06:39:09;3.78;;;1.17;;
72639;SDS011;60683;51.730;8.762;2022-07-29T06:41:39;3.17;;;1.20;;
72639;SDS011;60683;51.730;8.762;2022-07-29T06:44:08;4.63;;;1.23;;
72639;SDS011;60683;51.730;8.762;2022-07-29T06:46:35;3.53;;;1.40;;
72639;SDS011;60683;51.730;8.762;2022-07-29T06:49:03;3.22;;;1.50;;
72639;SDS011;60683;51.730;8.762;2022-07-29T06:51:30;4.47;;;1.42;;
72639;SDS011;60683;51.730;8.762;2022-07-29T06:53:58;4.15;;;1.65;;
72639;SDS011;60683;51.730;8.762;2022-07-29T06:56:26;2.40;;;1.17;;
72639;SDS011;60683;51.730;8.762;2022-07-29T06:58:54;3.67;;;1.30;;
72639;SDS011;60683;51.730;8.762;2022-07-29T07:01:22;3.55;;;1.10;;
72639;SDS011;60683;51.730;8.762;2022-07-29T07:03:50;5.10;;;1.40;;
72639;SDS011;60683;51.730;8.762;2022-07-29T07:06:17;3.72;;;1.25;;
72639;SDS011;60683;51.730;8.762;2022-07-29T07:08:44;5.57;;;1.27;;
72639;SDS011;60683;51.730;8.762;2022-07-29T07:11:12;4.43;;;1.38;;
72639;SDS011;60683;51.730;8.762;2022-07-29T07:13:39;4.95;;;1.50;;
72639;SDS011;60683;51.730;8.762;2022-07-29T07:16:07;4.65;;;1.15;;
72639;SDS011;60683;51.730;8.762;2022-07-29T07:18:35;5.20;;;1.40;;
72639;SDS011;60683;51.730;8.762;2022-07-29T07:21:03;3.17;;;1.38;;
72639;SDS011;60683;51.730;8.762;2022-07-29T07:23:31;4.25;;;1.23;;
72639;SDS011;60683;51.730;8.762;2022-07-29T07:25:58;3.78;;;1.75;;
72639;SDS011;60683;51.730;8.762;2022-07-29T07:28:29;4.55;;;1.42;;
72639;SDS011;60683;51.730;8.762;2022-07-29T07:30:56;4.63;;;1.50;;
72639;SDS011;60683;51.730;8.762;2022-07-29T07:33:23;5.82;;;1.63;;
72639;SDS011;60683;51.730;8.762;2022-07-29T07:35:55;3.83;;;1.42;;
72639;SDS011;60683;51.730;8.762;2022-07-29T07:38:27;4.05;;;1.40;;
72639;SDS011;60683;51.730;8.762;2022-07-29T07:40:54;6.10;;;1.60;;
72639;SDS011;60683;51.730;8.762;2022-07-29T07:43:22;4.30;;;1.80;;
72639;SDS011;60683;51.730;8.762;2022-07-29T07:45:49;5.80;;;1.42;;
72639;SDS011;60683;51.730;8.762;2022-07-29T07:48:19;5.47;;;1.80;;
72639;SDS011;60683;51.730;8.762;2022-07-29T07:50:46;3.45;;;1.55;;
72639;SDS011;60683;51.730;8.762;2022-07-29T07:53:16;3.58;;;1.38;;
72639;SDS011;60683;51.730;8.762;2022-07-29T07:55:44;4.75;;;1.35;;
72639;SDS011;60683;51.730;8.762;2022-07-29T07:58:12;4.15;;;2.00;;
72639;SDS011;60683;51.730;8.762;2022-07-29T08:00:40;5.15;;;1.20;;
72639;SDS011;60683;51.730;8.762;2022-07-29T08:03:08;3.78;;;1.20;;
72639;SDS011;60683;51.730;8.762;2022-07-29T08:08:05;4.40;;;1.45;;
72639;SDS011;60683;51.730;8.762;2022-07-29T08:10:33;6.00;;;1.77;;
72639;SDS011;60683;51.730;8.762;2022-07-29T08:13:18;4.50;;;1.30;;
72639;SDS011;60683;51.730;8.762;2022-07-29T08:15:47;4.38;;;1.35;;
72639;SDS011;60683;51.730;8.762;2022-07-29T08:18:23;6.68;;;1.42;;
72639;SDS011;60683;51.730;8.762;2022-07-29T08:20:51;3.40;;;1.40;;
72639;SDS011;60683;51.730;8.762;2022-07-29T08:23:18;4.10;;;1.55;;
72639;SDS011;60683;51.730;8.762;2022-07-29T08:25:47;4.63;;;1.40;;
72639;SDS011;60683;51.730;8.762;2022-07-29T08:28:14;3.45;;;1.33;;
72639;SDS011;60683;51.730;8.762;2022-07-29T08:30:42;3.85;;;1.38;;
72639;SDS011;60683;51.730;8.762;2022-07-29T08:33:10;5.38;;;1.70;;
72639;SDS011;60683;51.730;8.762;2022-07-29T08:35:38;3.20;;;1.27;;
72639;SDS011;60683;51.730;8.762;2022-07-29T08:38:05;4.15;;;1.73;;
72639;SDS011;60683;51.730;8.762;2022-07-29T08:40:32;5.97;;;1.80;;
72639;SDS011;60683;51.730;8.762;2022-07-29T08:43:05;5.57;;;1.83;;
72639;SDS011;60683;51.730;8.762;2022-07-29T08:45:36;3.25;;;1.73;;
72639;SDS011;60683;51.730;8.762;2022-07-29T08:48:09;6.38;;;1.25;;
72639;SDS011;60683;51.730;8.762;2022-07-29T08:50:36;4.18;;;1.63;;
72639;SDS011;60683;51.730;8.762;2022-07-29T08:53:05;3.17;;;1.38;;
72639;SDS011;60683;51.730;8.762;2022-07-29T08:55:33;4.60;;;1.30;;
72639;SDS011;60683;51.730;8.762;2022-07-29T08:58:05;4.15;;;1.50;;
72639;SDS011;60683;51.730;8.762;2022-07-29T09:00:32;4.00;;;1.30;;
72639;SDS011;60683;51.730;8.762;2022-07-29T09:03:01;3.72;;;1.50;;
72639;SDS011;60683;51.730;8.762;2022-07-29T09:05:30;4.45;;;1.42;;
72639;SDS011;60683;51.730;8.762;2022-07-29T09:07:58;4.13;;;1.23;;
72639;SDS011;60683;51.730;8.762;2022-07-29T09:10:25;8.98;;;1.80;;
72639;SDS011;60683;51.730;8.762;2022-07-29T09:12:53;4.80;;;1.48;;
72639;SDS011;60683;51.730;8.762;2022-07-29T09:15:23;4.32;;;1.70;;
72639;SDS011;60683;51.730;8.762;2022-07-29T09:17:51;3.75;;;1.42;;
72639;SDS011;60683;51.730;8.762;2022-07-29T09:20:19;3.85;;;1.38;;
72639;SDS011;60683;51.730;8.762;2022-07-29T09:22:48;4.05;;;1.45;;
72639;SDS011;60683;51.730;8.762;2022-07-29T09:25:31;4.38;;;1.50;;
72639;SDS011;60683;51.730;8.762;2022-07-29T09:28:05;3.97;;;1.67;;
72639;SDS011;60683;51.730;8.762;2022-07-29T09:30:34;3.60;;;1.58;;
72639;SDS011;60683;51.730;8.762;2022-07-29T09:33:02;4.63;;;1.85;;
72639;SDS011;60683;51.730;8.762;2022-07-29T09:35:30;3.28;;;1.20;;
72639;SDS011;60683;51.730;8.762;2022-07-29T09:37:58;3.72;;;1.80;;
72639;SDS011;60683;51.730;8.762;2022-07-29T09:40:37;5.38;;;1.80;;
72639;SDS011;60683;51.730;8.762;2022-07-29T09:43:11;3.38;;;1.30;;
72639;SDS011;60683;51.730;8.762;2022-07-29T09:45:41;3.45;;;1.50;;
72639;SDS011;60683;51.730;8.762;2022-07-29T09:48:18;5.70;;;1.50;;
72639;SDS011;60683;51.730;8.762;2022-07-29T09:50:46;4.40;;;1.42;;
72639;SDS011;60683;51.730;8.762;2022-07-29T09:53:30;4.75;;;1.63;;
72639;SDS011;60683;51.730;8.762;2022-07-29T09:55:58;6.35;;;1.90;;
72639;SDS011;60683;51.730;8.762;2022-07-29T09:58:26;4.38;;;1.50;;
72639;SDS011;60683;51.730;8.762;2022-07-29T10:00:55;3.28;;;1.10;;
72639;SDS011;60683;51.730;8.762;2022-07-29T10:03:22;3.75;;;1.63;;
72639;SDS011;60683;51.730;8.762;2022-07-29T10:06:03;6.20;;;1.85;;
72639;SDS011;60683;51.730;8.762;2022-07-29T10:08:32;3.35;;;1.35;;
72639;SDS011;60683;51.730;8.762;2022-07-29T10:11:08;7.05;;;2.22;;
72639;SDS011;60683;51.730;8.762;2022-07-29T10:13:36;4.55;;;1.67;;
72639;SDS011;60683;51.730;8.762;2022-07-29T10:16:05;4.53;;;2.35;;
72639;SDS011;60683;51.730;8.762;2022-07-29T10:18:32;4.82;;;1.48;;
72639;SDS011;60683;51.730;8.762;2022-07-29T10:21:01;3.60;;;1.42;;
72639;SDS011;60683;51.730;8.762;2022-07-29T10:23:29;5.10;;;1.77;;
72639;SDS011;60683;51.730;8.762;2022-07-29T10:25:57;5.32;;;1.98;;
72639;SDS011;60683;51.730;8.762;2022-07-29T10:28:24;4.75;;;2.05;;
72639;SDS011;60683;51.730;8.762;2022-07-29T10:30:52;4.43;;;1.20;;
72639;SDS011;60683;51.730;8.762;2022-07-29T10:33:35;3.92;;;1.80;;
72639;SDS011;60683;51.730;8.762;2022-07-29T10:36:17;3.45;;;1.60;;
72639;SDS011;60683;51.730;8.762;2022-07-29T10:38:51;5.93;;;1.70;;
72639;SDS011;60683;51.730;8.762;2022-07-29T10:41:32;4.63;;;1.55;;
72639;SDS011;60683;51.730;8.762;2022-07-29T10:44:05;3.97;;;1.33;;
72639;SDS011;60683;51.730;8.762;2022-07-29T10:46:35;7.03;;;1.40;;
72639;SDS011;60683;51.730;8.762;2022-07-29T10:49:08;4.55;;;1.77;;
72639;SDS011;60683;51.730;8.762;2022-07-29T10:51:52;5.32;;;1.65;;
72639;SDS011;60683;51.730;8.762;2022-07-29T10:54:37;4.00;;;1.77;;
72639;SDS011;60683;51.730;8.762;2022-07-29T10:57:14;3.40;;;1.40;;
72639;SDS011;60683;51.730;8.762;2022-07-29T10:59:43;3.10;;;1.52;;
72639;SDS011;60683;51.730;8.762;2022-07-29T11:05:12;3.67;;;1.60;;
72639;SDS011;60683;51.730;8.762;2022-07-29T11:10:27;3.13;;;1.52;;
72639;SDS011;60683;51.730;8.762;2022-07-29T11:13:01;5.90;;;1.83;;
72639;SDS011;60683;51.730;8.762;2022-07-29T11:15:29;4.82;;;2.08;;
72639;SDS011;60683;51.730;8.762;2022-07-29T11:18:06;4.78;;;1.80;;
72639;SDS011;60683;51.730;8.762;2022-07-29T11:20:38;4.88;;;1.80;;
72639;SDS011;60683;51.730;8.762;2022-07-29T11:28:48;5.90;;;1.90;;
72639;SDS011;60683;51.730;8.762;2022-07-29T11:31:31;4.20;;;1.80;;
72639;SDS011;60683;51.730;8.762;2022-07-29T11:34:17;3.72;;;1.60;;
72639;SDS011;60683;51.730;8.762;2022-07-29T11:39:43;4.18;;;1.63;;
72639;SDS011;60683;51.730;8.762;2022-07-29T11:45:05;3.00;;;1.50;;
72639;SDS011;60683;51.730;8.762;2022-07-29T11:47:36;5.82;;;1.85;;
72639;SDS011;60683;51.730;8.762;2022-07-29T11:50:06;4.20;;;1.80;;
72639;SDS011;60683;51.730;8.762;2022-07-29T11:52:37;7.70;;;1.95;;
72639;SDS011;60683;51.730;8.762;2022-07-29T11:55:09;4.47;;;2.17;;
72639;SDS011;60683;51.730;8.762;2022-07-29T11:57:44;6.90;;;2.15;;
72639;SDS011;60683;51.730;8.762;2022-07-29T12:00:19;5.85;;;2.00;;
72639;SDS011;60683;51.730;8.762;2022-07-29T12:02:48;3.92;;;1.67;;
72639;SDS011;60683;51.730;8.762;2022-07-29T12:05:16;5.90;;;1.75;;
72639;SDS011;60683;51.730;8.762;2022-07-29T12:07:47;4.53;;;2.13;;
72639;SDS011;60683;51.730;8.762;2022-07-29T12:10:15;3.20;;;1.52;;
72639;SDS011;60683;51.730;8.762;2022-07-29T12:12:42;5.13;;;1.92;;
72639;SDS011;60683;51.730;8.762;2022-07-29T12:15:18;4.28;;;1.83;;
72639;SDS011;60683;51.730;8.762;2022-07-29T12:17:47;4.18;;;1.80;;
72639;SDS011;60683;51.730;8.762;2022-07-29T12:20:21;5.60;;;1.98;;
72639;SDS011;60683;51.730;8.762;2022-07-29T12:22:51;7.10;;;2.67;;
72639;SDS011;60683;51.730;8.762;2022-07-29T12:25:21;4.95;;;1.60;;
72639;SDS011;60683;51.730;8.762;2022-07-29T12:27:59;5.00;;;2.20;;
72639;SDS011;60683;51.730;8.762;2022-07-29T12:30:41;6.75;;;2.15;;
72639;SDS011;60683;51.730;8.762;2022-07-29T12:33:14;6.28;;;1.92;;
72639;SDS011;60683;51.730;8.762;2022-07-29T12:35:45;3.85;;;2.00;;
72639;SDS011;60683;51.730;8.762;2022-07-29T12:38:19;4.03;;;1.85;;
72639;SDS011;60683;51.730;8.762;2022-07-29T12:40:47;4.07;;;2.10;;
72639;SDS011;60683;51.730;8.762;2022-07-29T12:43:17;4.68;;;2.17;;
72639;SDS011;60683;51.730;8.762;2022-07-29T12:45:46;4.10;;;2.50;;
72639;SDS011;60683;51.730;8.762;2022-07-29T12:48:15;3.80;;;1.55;;
72639;SDS011;60683;51.730;8.762;2022-07-29T12:50:54;5.70;;;2.20;;
72639;SDS011;60683;51.730;8.762;2022-07-29T12:53:24;4.38;;;1.83;;
72639;SDS011;60683;51.730;8.762;2022-07-29T12:55:52;4.35;;;1.83;;
72639;SDS011;60683;51.730;8.762;2022-07-29T12:58:28;6.18;;;2.22;;
72639;SDS011;60683;51.730;8.762;2022-07-29T13:01:06;3.88;;;1.98;;
72639;SDS011;60683;51.730;8.762;2022-07-29T13:03:45;5.68;;;1.83;;
72639;SDS011;60683;51.730;8.762;2022-07-29T13:06:27;4.05;;;1.92;;
72639;SDS011;60683;51.730;8.762;2022-07-29T13:09:09;4.45;;;2.22;;
72639;SDS011;60683;51.730;8.762;2022-07-29T13:11:39;4.75;;;2.13;;
72639;SDS011;60683;51.730;8.762;2022-07-29T13:14:08;3.58;;;1.83;;
72639;SDS011;60683;51.730;8.762;2022-07-29T13:16:36;3.65;;;1.95;;
72639;SDS011;60683;51.730;8.762;2022-07-29T13:19:09;5.28;;;2.55;;
72639;SDS011;60683;51.730;8.762;2022-07-29T13:21:38;5.40;;;2.25;;
72639;SDS011;60683;51.730;8.762;2022-07-29T13:24:06;3.53;;;1.80;;
72639;SDS011;60683;51.730;8.762;2022-07-29T13:26:36;5.50;;;2.13;;
72639;SDS011;60683;51.730;8.762;2022-07-29T13:29:09;4.53;;;2.10;;
72639;SDS011;60683;51.730;8.762;2022-07-29T13:31:36;5.05;;;2.10;;
72639;SDS011;60683;51.730;8.762;2022-07-29T13:34:04;5.65;;;2.00;;
72639;SDS011;60683;51.730;8.762;2022-07-29T13:36:32;5.18;;;2.17;;
72639;SDS011;60683;51.730;8.762;2022-07-29T13:38:59;6.35;;;2.45;;
72639;SDS011;60683;51.730;8.762;2022-07-29T13:41:28;4.05;;;2.20;;
72639;SDS011;60683;51.730;8.762;2022-07-29T13:43:57;5.03;;;2.00;;
72639;SDS011;60683;51.730;8.762;2022-07-29T13:46:24;4.53;;;2.40;;
72639;SDS011;60683;51.730;8.762;2022-07-29T13:48:51;7.45;;;2.20;;
72639;SDS011;60683;51.730;8.762;2022-07-29T13:51:19;5.60;;;1.95;;
72639;SDS011;60683;51.730;8.762;2022-07-29T13:53:47;4.35;;;2.05;;
72639;SDS011;60683;51.730;8.762;2022-07-29T13:56:14;4.28;;;2.15;;
72639;SDS011;60683;51.730;8.762;2022-07-29T13:58:42;5.55;;;2.33;;
72639;SDS011;60683;51.730;8.762;2022-07-29T14:01:11;5.07;;;1.95;;
72639;SDS011;60683;51.730;8.762;2022-07-29T14:03:38;4.90;;;2.58;;
72639;SDS011;60683;51.730;8.762;2022-07-29T14:06:06;3.70;;;2.08;;
72639;SDS011;60683;51.730;8.762;2022-07-29T14:08:37;4.25;;;2.28;;
72639;SDS011;60683;51.730;8.762;2022-07-29T14:11:04;4.93;;;2.22;;
72639;SDS011;60683;51.730;8.762;2022-07-29T14:13:31;5.78;;;2.17;;
72639;SDS011;60683;51.730;8.762;2022-07-29T14:15:59;4.35;;;2.20;;
72639;SDS011;60683;51.730;8.762;2022-07-29T14:18:27;5.00;;;2.15;;
72639;SDS011;60683;51.730;8.762;2022-07-29T14:20:54;5.57;;;2.60;;
72639;SDS011;60683;51.730;8.762;2022-07-29T14:23:22;4.05;;;2.30;;
72639;SDS011;60683;51.730;8.762;2022-07-29T14:25:50;3.90;;;2.15;;
72639;SDS011;60683;51.730;8.762;2022-07-29T14:28:18;4.57;;;2.35;;
72639;SDS011;60683;51.730;8.762;2022-07-29T14:30:46;5.78;;;2.60;;
72639;SDS011;60683;51.730;8.762;2022-07-29T14:33:13;4.22;;;2.35;;
72639;SDS011;60683;51.730;8.762;2022-07-29T14:35:42;3.78;;;2.03;;
72639;SDS011;60683;51.730;8.762;2022-07-29T14:38:10;4.53;;;2.40;;
72639;SDS011;60683;51.730;8.762;2022-07-29T14:40:37;6.57;;;2.92;;
72639;SDS011;60683;51.730;8.762;2022-07-29T14:43:04;4.75;;;2.30;;
72639;SDS011;60683;51.730;8.762;2022-07-29T14:45:34;5.57;;;2.22;;
72639;SDS011;60683;51.730;8.762;2022-07-29T14:48:02;4.80;;;2.58;;
72639;SDS011;60683;51.730;8.762;2022-07-29T14:50:29;4.07;;;2.25;;
72639;SDS011;60683;51.730;8.762;2022-07-29T14:52:58;4.38;;;2.63;;
72639;SDS011;60683;51.730;8.762;2022-07-29T14:55:25;8.23;;;2.63;;
72639;SDS011;60683;51.730;8.762;2022-07-29T14:57:53;5.53;;;2.47;;
72639;SDS011;60683;51.730;8.762;2022-07-29T15:00:21;5.63;;;2.17;;
72639;SDS011;60683;51.730;8.762;2022-07-29T15:02:48;4.35;;;2.63;;
72639;SDS011;60683;51.730;8.762;2022-07-29T15:05:16;5.50;;;2.45;;
72639;SDS011;60683;51.730;8.762;2022-07-29T15:11:43;4.35;;;2.33;;
72639;SDS011;60683;51.730;8.762;2022-07-29T15:14:10;4.65;;;2.47;;
72639;SDS011;60683;51.730;8.762;2022-07-29T15:16:37;6.70;;;3.10;;
72639;SDS011;60683;51.730;8.762;2022-07-29T15:19:05;7.43;;;2.83;;
72639;SDS011;60683;51.730;8.762;2022-07-29T15:21:33;4.07;;;2.33;;
72639;SDS011;60683;51.730;8.762;2022-07-29T15:24:00;6.75;;;2.58;;
72639;SDS011;60683;51.730;8.762;2022-07-29T15:26:28;4.18;;;2.78;;
72639;SDS011;60683;51.730;8.762;2022-07-29T15:28:57;5.15;;;2.33;;
72639;SDS011;60683;51.730;8.762;2022-07-29T15:31:24;6.88;;;2.45;;
72639;SDS011;60683;51.730;8.762;2022-07-29T15:33:51;5.47;;;2.33;;